Time;durP1;ratioP1;P1;durP2;ratioP2;P2;SDS_P1;SDS_P2;PMS_P1;PMS_P2;Temp;Humidity;BMP_temperature;BMP_pressure;BME280_temperature;BME280_humidity;BME280_pressure;Samples;Min_cycle;Max_cycle;Signal;HPM_P1;HPM_P2
2022/08/04 00:01:52;;;;;;;6.38;2.03;;;;;;;23.64;59.46;99667.50;5042397;28;20064;-80
2022/08/04 00:04:52;;;;;;;5.22;1.42;;;;;;;23.65;58.87;99664.38;5044116;28;20076;-80
2022/08/04 00:07:36;;;;;;;12.40;1.85;;;;;;;23.63;59.06;99661.16;5046898;28;20084;-89
2022/08/04 00:10:04;;;;;;;7.75;2.35;;;;;;;23.59;59.26;99657.47;5046454;28;20063;-89
2022/08/04 00:12:32;;;;;;;8.02;2.40;;;;;;;23.59;59.59;99663.03;5047009;28;20049;-89
2022/08/04 00:14:59;;;;;;;7.28;2.13;;;;;;;23.53;60.20;99661.66;5045702;28;20037;-89
2022/08/04 00:17:30;;;;;;;6.30;1.90;;;;;;;23.48;60.37;99659.94;5049796;28;20021;-89
2022/08/04 00:19:59;;;;;;;4.53;1.67;;;;;;;23.43;60.96;99658.19;5050264;28;20048;-89
2022/08/04 00:22:28;;;;;;;13.10;2.78;;;;;;;23.37;61.37;99654.03;5044903;28;20095;-89
2022/08/04 00:25:00;;;;;;;12.13;2.53;;;;;;;23.31;61.46;99655.47;5050697;28;20029;-89
2022/08/04 00:27:29;;;;;;;9.07;2.47;;;;;;;23.24;61.97;99650.53;5050951;28;20305;-89
2022/08/04 00:29:55;;;;;;;5.00;1.92;;;;;;;23.21;61.77;99648.44;5050356;28;20032;-89
2022/08/04 00:32:21;;;;;;;6.53;1.90;;;;;;;23.20;61.81;99650.44;5050977;28;20134;-89
2022/08/04 00:34:47;;;;;;;6.28;1.88;;;;;;;23.17;62.21;99645.56;5050428;28;20033;-89
2022/08/04 00:37:13;;;;;;;8.65;2.45;;;;;;;23.09;61.94;99632.63;5050085;28;20025;-85
2022/08/04 00:39:39;;;;;;;8.68;3.15;;;;;;;23.02;61.89;99643.56;5049492;28;20453;-86
2022/08/04 00:42:43;;;;;;;6.15;2.60;;;;;;;23.02;62.19;99635.22;5048970;28;20375;-83
2022/08/04 00:45:27;;;;;;;8.82;3.35;;;;;;;22.97;62.90;99637.06;5026324;28;20504;-89
2022/08/04 00:48:03;;;;;;;15.38;2.80;;;;;;;22.95;62.53;99628.28;5027578;28;20242;-88
2022/08/04 00:50:34;;;;;;;10.73;1.98;;;;;;;22.93;62.64;99625.03;5041608;28;20045;-83
2022/08/04 00:53:37;;;;;;;13.40;3.05;;;;;;;22.92;62.35;99629.00;5048783;28;20525;-83
2022/08/04 00:56:15;;;;;;;11.60;3.08;;;;;;;22.91;62.76;99627.38;5050246;28;20033;-85
2022/08/04 00:58:58;;;;;;;8.18;2.00;;;;;;;22.92;63.52;99628.19;5051107;28;20044;-85
2022/08/04 01:01:50;;;;;;;13.75;3.15;;;;;;;22.92;62.26;99626.22;5051947;28;20043;-82
2022/08/04 01:04:28;;;;;;;12.68;2.22;;;;;;;22.94;62.78;99617.53;5048906;28;20032;-82
2022/08/04 01:07:30;;;;;;;8.45;2.08;;;;;;;22.99;62.28;99614.47;5048839;28;20056;-82
2022/08/04 01:10:21;;;;;;;4.25;1.88;;;;;;;23.01;61.83;99616.91;5048187;28;20116;-82
2022/08/04 01:13:23;;;;;;;12.73;2.85;;;;;;;23.08;62.31;99615.16;5048293;28;20115;-83
2022/08/04 01:16:06;;;;;;;7.45;2.65;;;;;;;23.11;61.33;99616.41;5048730;28;20041;-83
2022/08/04 01:18:47;;;;;;;10.03;2.77;;;;;;;23.16;61.60;99616.16;5048064;28;20344;-83
2022/08/04 01:21:26;;;;;;;16.58;2.70;;;;;;;23.19;61.38;99615.44;5048654;28;20037;-83
2022/08/04 01:24:36;;;;;;;9.02;1.88;;;;;;;23.18;60.85;99611.06;5047210;28;20240;-83
2022/08/04 01:27:25;;;;;;;13.68;2.30;;;;;;;23.22;61.08;99616.72;5048946;28;20048;-89
2022/08/04 01:29:54;;;;;;;6.47;3.05;;;;;;;23.23;60.99;99611.97;5047692;28;20037;-90
2022/08/04 01:32:26;;;;;;;7.40;2.72;;;;;;;23.18;61.43;99601.91;5049787;28;20040;-89
2022/08/04 01:35:10;;;;;;;7.65;1.42;;;;;;;23.11;62.18;99602.50;5049496;28;20036;-90
2022/08/04 01:37:53;;;;;;;7.47;1.90;;;;;;;23.05;61.89;99598.34;5049833;28;20060;-89
2022/08/04 01:40:20;;;;;;;7.13;2.60;;;;;;;23.04;62.32;99600.34;5049075;28;20033;-84
2022/08/04 01:42:48;;;;;;;9.50;2.40;;;;;;;23.01;62.19;99603.00;5046842;28;20029;-83
2022/08/04 01:45:14;;;;;;;9.23;3.17;;;;;;;22.95;63.31;99589.38;5047194;28;20160;-82
2022/08/04 01:47:42;;;;;;;11.68;3.75;;;;;;;22.87;62.71;99593.09;5047110;28;20136;-82
2022/08/04 01:50:13;;;;;;;9.95;2.25;;;;;;;22.86;63.36;99594.28;5047013;28;20112;-82
2022/08/04 01:52:41;;;;;;;7.05;2.10;;;;;;;22.80;63.15;99592.91;5047235;28;20136;-83
2022/08/04 01:55:09;;;;;;;10.13;2.90;;;;;;;22.83;63.20;99581.09;5047424;28;20029;-82
2022/08/04 01:57:52;;;;;;;7.43;2.22;;;;;;;22.80;63.87;99581.81;5046973;28;20025;-82
2022/08/04 02:00:20;;;;;;;6.65;2.33;;;;;;;22.77;63.53;99576.94;5046600;28;20037;-83
2022/08/04 02:02:47;;;;;;;8.02;2.63;;;;;;;22.76;63.47;99578.91;5046970;28;20028;-83
2022/08/04 02:05:15;;;;;;;17.17;3.92;;;;;;;22.69;63.79;99571.19;5046896;28;20040;-83
2022/08/04 02:07:59;;;;;;;13.00;2.47;;;;;;;22.65;63.84;99573.06;5047125;28;20095;-82
2022/08/04 02:10:28;;;;;;;;;;;;;;;22.60;64.11;99567.69;5046638;28;20037;-84
2022/08/04 02:13:27;;;;;;;8.65;2.35;;;;;;;22.64;64.18;99563.06;5045749;28;20386;-84
2022/08/04 02:16:20;;;;;;;9.18;3.20;;;;;;;22.64;63.92;99563.06;5047751;28;20114;-80
2022/08/04 02:19:01;;;;;;;5.75;2.42;;;;;;;22.67;63.95;99559.63;5043849;28;20804;-80
2022/08/04 02:21:29;;;;;;;11.05;2.70;;;;;;;22.67;64.18;99551.28;5047004;28;20029;-83
2022/08/04 02:24:01;;;;;;;9.00;3.58;;;;;;;22.66;64.20;99554.41;5047382;28;20123;-84
2022/08/04 02:26:31;;;;;;;11.70;2.70;;;;;;;22.66;63.94;99551.63;5047034;28;20056;-82
2022/08/04 02:29:19;;;;;;;8.57;2.42;;;;;;;22.65;64.05;99552.75;5045875;28;20025;-83
2022/08/04 02:32:04;;;;;;;5.53;2.63;;;;;;;22.63;63.84;99553.13;5047761;28;20036;-89
2022/08/04 02:34:43;;;;;;;6.50;2.95;;;;;;;22.60;64.50;99557.41;5047950;28;20278;-88
2022/08/04 02:37:08;;;;;;;10.00;2.88;;;;;;;22.61;64.51;99547.09;5047219;28;20071;-82
2022/08/04 02:39:36;;;;;;;22.38;3.55;;;;;;;22.60;64.18;99551.03;5046567;28;20056;-88
2022/08/04 02:42:03;;;;;;;6.93;2.50;;;;;;;22.49;64.94;99540.44;5048057;28;20039;-88
2022/08/04 02:44:30;;;;;;;10.88;4.28;;;;;;;22.34;65.56;99538.38;5048270;28;20052;-89
2022/08/04 02:46:58;;;;;;;9.43;3.10;;;;;;;22.28;66.09;99538.63;5047894;28;20060;-88
2022/08/04 02:49:25;;;;;;;8.32;3.13;;;;;;;22.25;66.27;99539.31;5046722;28;20039;-89
2022/08/04 02:51:53;;;;;;;6.68;3.00;;;;;;;22.07;66.35;99540.75;5047609;28;20491;-88
2022/08/04 02:54:24;;;;;;;8.90;3.53;;;;;;;21.95;67.39;99538.81;5047523;28;20028;-89
2022/08/04 02:56:52;;;;;;;6.50;2.92;;;;;;;21.87;67.31;99527.47;5048691;28;20147;-89
2022/08/04 02:59:19;;;;;;;9.45;3.28;;;;;;;21.84;67.83;99530.94;5047688;28;20041;-89
2022/08/04 03:01:45;;;;;;;10.00;3.00;;;;;;;21.79;67.72;99526.41;5048385;28;20107;-89
2022/08/04 03:04:16;;;;;;;15.13;2.97;;;;;;;21.86;67.37;99520.31;5048273;28;20060;-89
2022/08/04 03:07:11;;;;;;;7.40;2.75;;;;;;;21.99;66.45;99518.31;5047505;28;20029;-81
2022/08/04 03:10:09;;;;;;;15.45;3.35;;;;;;;22.15;65.98;99518.41;5043317;28;20453;-79
2022/08/04 03:12:56;;;;;;;7.50;2.85;;;;;;;22.19;65.84;99506.63;5046485;28;20043;-88
2022/08/04 03:16:02;;;;;;;8.68;2.50;;;;;;;22.27;65.64;99512.00;5047713;28;20534;-89
2022/08/04 03:18:36;;;;;;;10.35;2.72;;;;;;;22.25;65.63;99511.56;5046935;28;20182;-88
2022/08/04 03:21:24;;;;;;;9.85;3.20;;;;;;;22.21;65.83;99507.06;5047368;28;20028;-81
2022/08/04 03:24:08;;;;;;;8.55;2.22;;;;;;;22.15;65.96;99509.28;5045169;28;20033;-80
2022/08/04 03:26:39;;;;;;;10.23;3.58;;;;;;;22.10;66.40;99513.09;5044809;28;20036;-88
2022/08/04 03:29:38;;;;;;;6.25;3.40;;;;;;;22.00;66.91;99510.81;5051211;28;20041;-88
2022/08/04 03:32:37;;;;;;;19.67;3.05;;;;;;;21.84;67.10;99511.53;5051486;28;20063;-84
2022/08/04 03:35:15;;;;;;;10.40;3.00;;;;;;;21.77;67.48;99508.47;5047663;28;20029;-83
2022/08/04 03:37:43;;;;;;;9.30;3.13;;;;;;;21.72;67.46;99512.31;5046957;28;20040;-82
2022/08/04 03:40:42;;;;;;;10.75;2.78;;;;;;;21.57;68.45;99509.06;5045603;28;20531;-82
2022/08/04 03:43:42;;;;;;;6.70;2.95;;;;;;;21.63;68.34;99511.59;5048067;28;20505;-85
2022/08/04 03:46:56;;;;;;;6.75;2.70;;;;;;;21.66;68.36;99510.94;5047408;28;20071;-85
2022/08/04 03:49:45;;;;;;;6.78;3.53;;;;;;;21.58;68.98;99510.69;5045602;28;20044;-85
2022/08/04 03:55:28;;;;;;;8.32;3.58;;;;;;;21.58;68.52;99516.22;5044798;28;20086;-80
2022/08/04 03:58:20;;;;;;;7.03;3.00;;;;;;;21.60;68.20;99507.53;5046009;28;20051;-83
2022/08/04 04:00:59;;;;;;;6.30;2.78;;;;;;;21.63;67.85;99501.31;5024652;28;20064;-83
2022/08/04 04:03:52;;;;;;;19.13;4.57;;;;;;;21.66;68.44;99502.59;5026146;28;20021;-83
2022/08/04 04:06:44;;;;;;;12.23;4.80;;;;;;;21.70;68.83;99506.31;5026629;28;20045;-89
2022/08/04 04:09:12;;;;;;;6.75;2.95;;;;;;;21.61;68.51;99503.63;5033914;28;20547;-90
2022/08/04 04:12:05;;;;;;;6.32;3.00;;;;;;;21.62;68.63;99504.44;5046984;28;20028;-84
2022/08/04 04:14:59;;;;;;;8.98;2.95;;;;;;;21.52;68.69;99511.28;5045519;28;20152;-84
2022/08/04 04:17:55;;;;;;;6.88;2.95;;;;;;;21.53;69.11;99508.16;5045757;28;20040;-84
2022/08/04 04:20:57;;;;;;;9.57;3.42;;;;;;;21.50;69.33;99508.81;5044129;28;20490;-84
2022/08/04 04:23:30;;;;;;;12.30;4.47;;;;;;;21.49;69.62;99511.94;5026152;28;20391;-84
2022/08/04 04:26:04;;;;;;;17.80;4.28;;;;;;;21.54;69.46;99508.97;5025229;28;20033;-84
2022/08/04 04:28:38;;;;;;;;;;;;;;;21.57;69.24;99502.72;5029085;28;20122;-84
2022/08/04 04:31:34;;;;;;;12.65;4.47;;;;;;;21.51;70.00;99504.09;5045771;28;19940;-82
2022/08/04 04:34:15;;;;;;;10.07;3.30;;;;;;;21.53;69.71;99502.59;5045146;28;20475;-82
2022/08/04 04:37:12;;;;;;;12.82;4.20;;;;;;;21.53;70.05;99508.16;5043923;28;20124;-83
2022/08/04 04:40:16;;;;;;;9.95;3.67;;;;;;;21.56;69.70;99501.88;5035281;28;20060;-82
2022/08/04 04:43:05;;;;;;;5.83;3.13;;;;;;;21.52;69.66;99512.06;5046225;28;20277;-85
2022/08/04 04:45:44;;;;;;;5.18;2.70;;;;;;;21.53;69.96;99513.69;5045973;28;20033;-85
2022/08/04 04:48:28;;;;;;;11.65;3.20;;;;;;;21.54;69.92;99506.97;5045171;28;20039;-85
2022/08/04 04:51:18;;;;;;;7.25;2.92;;;;;;;21.58;69.99;99502.34;5044510;28;20071;-85
2022/08/04 04:54:17;;;;;;;7.72;3.92;;;;;;;21.60;70.61;99510.31;5045913;28;20159;-85
2022/08/04 04:56:57;;;;;;;7.55;3.03;;;;;;;21.61;70.20;99508.38;5044800;28;20040;-83
2022/08/04 04:59:27;;;;;;;9.20;4.05;;;;;;;21.61;70.61;99517.50;5044717;28;20037;-84
2022/08/04 05:02:10;;;;;;;8.15;3.35;;;;;;;21.63;70.35;99506.06;5045810;28;20028;-83
2022/08/04 05:05:13;;;;;;;7.28;3.17;;;;;;;21.67;70.69;99507.78;5048091;28;20044;-83
2022/08/04 05:08:01;;;;;;;14.07;3.25;;;;;;;21.74;70.34;99511.97;5049928;28;20037;-88
2022/08/04 05:10:55;;;;;;;7.63;3.60;;;;;;;21.79;69.89;99509.75;5049339;28;20028;-88
2022/08/04 05:13:33;;;;;;;6.32;2.83;;;;;;;21.87;69.62;99516.38;5049982;28;20045;-88
2022/08/04 05:16:34;;;;;;;7.10;3.33;;;;;;;21.87;69.55;99505.28;5050028;28;20025;-83
2022/08/04 05:19:18;;;;;;;9.57;3.15;;;;;;;21.89;70.39;99516.00;5039215;28;20037;-82
2022/08/04 05:21:48;;;;;;;10.02;2.92;;;;;;;21.92;70.21;99501.47;5045636;28;20039;-83
2022/08/04 05:24:18;;;;;;;5.10;2.83;;;;;;;21.96;70.42;99507.13;5044999;28;20032;-84
2022/08/04 05:26:47;;;;;;;11.60;3.35;;;;;;;21.96;70.71;99513.47;5048739;28;20054;-84
2022/08/04 05:29:24;;;;;;;10.55;3.20;;;;;;;21.98;71.15;99508.38;5047904;28;20167;-84
2022/08/04 05:31:53;;;;;;;6.10;3.25;;;;;;;22.03;71.30;99513.69;5048366;28;20056;-82
2022/08/04 05:34:22;;;;;;;6.70;3.05;;;;;;;22.03;71.77;99505.38;5047562;28;20061;-82
2022/08/04 05:36:56;;;;;;;5.72;3.08;;;;;;;22.08;71.50;99503.50;5047679;28;20156;-82
2022/08/04 05:39:27;;;;;;;8.27;4.15;;;;;;;22.09;71.09;99510.69;5047074;28;20068;-82
2022/08/04 05:41:55;;;;;;;7.43;3.53;;;;;;;22.19;71.08;99507.41;5045285;28;20075;-85
2022/08/04 05:44:22;;;;;;;10.52;3.85;;;;;;;22.26;71.04;99509.59;5048327;28;20400;-85
2022/08/04 05:46:51;;;;;;;7.70;4.00;;;;;;;22.30;71.21;99504.97;5048935;28;20475;-88
2022/08/04 05:49:18;;;;;;;11.93;2.97;;;;;;;22.33;70.99;99507.06;5048227;28;20037;-88
2022/08/04 05:51:45;;;;;;;6.65;3.30;;;;;;;22.34;68.87;99513.38;5048907;28;20356;-84
2022/08/04 05:54:12;;;;;;;10.98;3.30;;;;;;;22.46;69.48;99518.91;5048078;28;20056;-84
2022/08/04 05:56:38;;;;;;;8.00;3.20;;;;;;;22.51;69.11;99504.78;5047280;28;20047;-83
2022/08/04 05:59:05;;;;;;;8.65;4.05;;;;;;;22.57;70.03;99512.88;5047011;28;20503;-83
2022/08/04 06:01:32;;;;;;;6.55;3.10;;;;;;;22.63;69.53;99511.44;5047898;28;20036;-84
2022/08/04 06:04:00;;;;;;;10.50;3.22;;;;;;;22.67;69.30;99512.41;5047408;28;20036;-84
2022/08/04 06:06:26;;;;;;;10.73;3.70;;;;;;;22.69;68.85;99512.03;5048604;28;20033;-83
2022/08/04 06:08:53;;;;;;;8.57;2.60;;;;;;;22.72;66.72;99514.91;5047237;28;20032;-83
2022/08/04 06:11:20;;;;;;;6.03;3.30;;;;;;;22.83;67.23;99514.41;5048324;28;20060;-83
2022/08/04 06:13:57;;;;;;;7.43;2.92;;;;;;;22.95;66.27;99506.00;5047099;28;20307;-83
2022/08/04 06:16:25;;;;;;;13.13;2.92;;;;;;;23.11;64.59;99504.44;5045827;28;20060;-83
2022/08/04 06:18:56;;;;;;;9.13;3.08;;;;;;;23.19;64.21;99514.53;5044153;28;20476;-84
2022/08/04 06:21:25;;;;;;;11.07;3.25;;;;;;;23.29;64.22;99507.66;5042534;28;20029;-89
2022/08/04 06:23:53;;;;;;;5.65;2.70;;;;;;;23.33;64.13;99506.56;5046877;28;20416;-92
2022/08/04 06:26:19;;;;;;;6.68;3.72;;;;;;;23.37;63.89;99512.22;5046866;28;20071;-81
2022/08/04 06:28:48;;;;;;;5.80;2.72;;;;;;;23.39;64.33;99507.09;5045786;28;20503;-81
2022/08/04 06:31:30;;;;;;;16.00;3.40;;;;;;;23.49;64.00;99514.16;5046160;28;20091;-81
2022/08/04 06:34:00;;;;;;;9.02;3.00;;;;;;;23.49;63.61;99521.69;5046124;28;20394;-81
2022/08/04 06:36:26;;;;;;;11.98;3.13;;;;;;;23.48;63.72;99515.31;5046098;28;20563;-81
2022/08/04 06:38:53;;;;;;;7.82;2.80;;;;;;;23.57;62.45;99517.91;5045162;28;20099;-81
2022/08/04 06:41:18;;;;;;;4.75;2.83;;;;;;;23.70;60.35;99503.88;5047640;28;20035;-87
2022/08/04 06:43:45;;;;;;;9.35;3.58;;;;;;;23.79;60.85;99507.31;5052054;28;20029;-87
2022/08/04 06:46:11;;;;;;;6.45;3.08;;;;;;;23.74;59.98;99516.72;5052792;28;20039;-94
2022/08/04 06:48:37;;;;;;;6.88;2.60;;;;;;;23.87;59.49;99511.88;5047855;28;20033;-93
2022/08/04 06:51:03;;;;;;;6.55;3.50;;;;;;;23.80;58.88;99508.91;5052573;28;20083;-92
2022/08/04 06:53:28;;;;;;;5.85;3.08;;;;;;;23.91;58.43;99514.72;5051693;28;20052;-93
2022/08/04 06:55:55;;;;;;;4.60;2.90;;;;;;;24.05;56.41;99513.44;5049989;28;20028;-93
2022/08/04 06:58:22;;;;;;;11.18;3.38;;;;;;;24.34;55.48;99509.34;5047266;28;20484;-94
2022/08/04 07:00:49;;;;;;;7.53;2.90;;;;;;;24.26;56.07;99513.13;5046239;28;20041;-92
2022/08/04 07:03:17;;;;;;;4.63;2.55;;;;;;;24.23;56.20;99505.50;5046980;28;20040;-92
2022/08/04 07:05:44;;;;;;;6.05;2.75;;;;;;;24.33;55.81;99506.91;5063350;28;20038;-93
2022/08/04 07:08:10;;;;;;;8.80;3.38;;;;;;;24.37;55.15;99503.03;5047865;28;20043;-92
2022/08/04 07:10:36;;;;;;;4.68;2.67;;;;;;;24.33;55.52;99507.72;5046632;28;20028;-93
2022/08/04 07:13:02;;;;;;;6.68;3.47;;;;;;;24.43;55.53;99497.19;5044309;28;20020;-82
2022/08/04 07:15:28;;;;;;;3.88;2.45;;;;;;;24.51;54.84;99498.13;5044481;28;20478;-81
2022/08/04 07:17:58;;;;;;;5.22;2.40;;;;;;;24.76;53.25;99498.63;5041956;28;20104;-81
2022/08/04 07:20:24;;;;;;;4.13;2.65;;;;;;;24.72;52.68;99506.09;5042667;28;20068;-81
2022/08/04 07:22:50;;;;;;;4.80;3.20;;;;;;;24.83;52.14;99495.97;5045206;28;20033;-82
2022/08/04 07:25:17;;;;;;;8.10;3.00;;;;;;;24.75;52.59;99499.81;5044159;28;20189;-81
2022/08/04 07:27:42;;;;;;;6.57;2.53;;;;;;;24.68;53.65;99502.44;5046170;28;20797;-82
2022/08/04 07:30:09;;;;;;;6.63;2.70;;;;;;;24.91;51.87;99508.06;5042093;28;20064;-82
2022/08/04 07:32:35;;;;;;;4.75;2.47;;;;;;;24.77;52.83;99497.44;5045498;28;20041;-81
2022/08/04 07:35:02;;;;;;;5.55;3.25;;;;;;;24.83;52.36;99501.56;5045482;28;20365;-81
2022/08/04 07:37:27;;;;;;;3.65;2.90;;;;;;;24.93;52.35;99502.13;5045491;28;20033;-82
2022/08/04 07:39:52;;;;;;;7.25;2.97;;;;;;;25.02;52.19;99501.91;5044342;28;20502;-82
2022/08/04 07:42:19;;;;;;;19.70;5.03;;;;;;;25.28;51.29;99503.16;5046685;28;20060;-90
2022/08/04 07:44:45;;;;;;;4.55;2.80;;;;;;;25.36;51.18;99504.91;5047375;28;20277;-89
2022/08/04 07:47:11;;;;;;;4.72;2.53;;;;;;;25.37;51.88;99511.25;5045239;28;20537;-82
2022/08/04 07:49:36;;;;;;;7.75;2.95;;;;;;;25.46;51.39;99509.03;5036311;28;20048;-82
2022/08/04 07:52:03;;;;;;;5.95;2.60;;;;;;;25.67;50.41;99512.56;5044658;28;20040;-79
2022/08/04 07:54:29;;;;;;;12.68;3.78;;;;;;;25.55;50.56;99514.34;5044525;28;20487;-78
2022/08/04 07:56:55;;;;;;;7.22;2.40;;;;;;;25.48;51.23;99505.88;5044968;28;20029;-82
2022/08/04 07:59:20;;;;;;;5.45;2.60;;;;;;;25.25;52.10;99510.28;5042954;28;20036;-81
2022/08/04 08:01:47;;;;;;;7.30;3.22;;;;;;;25.70;50.63;99509.03;5047122;28;20032;-81
2022/08/04 08:04:13;;;;;;;4.95;2.95;;;;;;;25.72;51.07;99509.47;5045884;28;20090;-80
2022/08/04 08:06:40;;;;;;;4.45;2.53;;;;;;;26.33;49.43;99508.72;5047331;28;20040;-81
2022/08/04 08:09:08;;;;;;;5.10;2.95;;;;;;;25.79;50.12;99515.16;5044720;28;20036;-81
2022/08/04 08:11:33;;;;;;;18.73;4.03;;;;;;;25.51;51.35;99505.91;5041695;28;20044;-81
2022/08/04 08:13:59;;;;;;;8.00;2.65;;;;;;;25.81;50.98;99512.78;5044864;28;20403;-81
2022/08/04 08:16:25;;;;;;;10.82;2.90;;;;;;;25.89;49.78;99505.34;5047367;28;20028;-81
2022/08/04 08:18:50;;;;;;;5.70;2.50;;;;;;;26.13;49.61;99499.66;5046109;28;20025;-82
2022/08/04 08:21:19;;;;;;;4.97;2.17;;;;;;;26.20;49.68;99505.34;5048665;28;20039;-87
2022/08/04 08:23:45;;;;;;;7.80;2.72;;;;;;;26.40;49.11;99508.81;5051008;28;20350;-87
2022/08/04 08:26:10;;;;;;;7.93;2.63;;;;;;;26.20;49.03;99506.16;5050417;28;20629;-86
2022/08/04 08:28:36;;;;;;;8.15;3.03;;;;;;;26.31;48.15;99511.06;5049003;28;20060;-87
2022/08/04 08:31:01;;;;;;;4.55;2.08;;;;;;;26.41;47.76;99504.84;5048750;28;20048;-84
2022/08/04 08:33:27;;;;;;;8.03;2.57;;;;;;;26.64;46.92;99505.91;5047906;28;20036;-81
2022/08/04 08:36:00;;;;;;;4.10;2.22;;;;;;;26.25;48.12;99513.41;5048414;28;20353;-86
2022/08/04 08:38:57;;;;;;;8.05;2.40;;;;;;;26.71;46.43;99506.00;5059147;28;20036;-86
2022/08/04 08:41:59;;;;;;;2.85;1.92;;;;;;;26.26;47.82;99508.63;5029284;28;20094;-92
2022/08/04 08:44:45;;;;;;;6.50;2.35;;;;;;;26.33;48.34;99508.72;5057285;28;20166;-92
2022/08/04 08:47:25;;;;;;;5.85;2.45;;;;;;;26.38;48.04;99508.41;5054262;28;20041;-91
2022/08/04 08:50:28;;;;;;;3.33;1.95;;;;;;;26.64;47.15;99500.34;5048563;28;20123;-92
2022/08/04 08:53:22;;;;;;;5.53;2.20;;;;;;;26.83;46.87;99504.13;5053023;28;20033;-80
2022/08/04 08:56:09;;;;;;;2.92;1.75;;;;;;;27.27;45.29;99502.59;5049396;28;20044;-80
2022/08/04 08:58:52;;;;;;;6.43;2.03;;;;;;;27.35;45.38;99509.03;5048005;28;20441;-80
2022/08/04 09:01:39;;;;;;;7.70;2.43;;;;;;;27.33;46.14;99501.03;5050504;28;20098;-86
2022/08/04 09:04:23;;;;;;;4.07;2.10;;;;;;;27.56;45.85;99502.03;5053964;28;20850;-88
2022/08/04 09:07:07;;;;;;;;;;;;;;;27.28;46.06;99493.00;5055651;28;20094;-90
2022/08/04 09:09:57;;;;;;;5.15;2.25;;;;;;;27.48;45.45;99501.16;5052656;28;20002;-91
2022/08/04 09:12:44;;;;;;;3.53;2.08;;;;;;;27.59;44.75;99501.22;5054466;28;20118;-90
2022/08/04 09:15:17;;;;;;;3.55;2.10;;;;;;;27.53;45.42;99498.00;5054351;28;20049;-88
2022/08/04 09:18:04;;;;;;;4.93;1.88;;;;;;;27.45;45.50;99499.94;5053768;28;20037;-90
2022/08/04 09:20:38;;;;;;;4.97;2.22;;;;;;;27.62;45.00;99492.06;5051979;28;20033;-90
2022/08/04 09:23:32;;;;;;;4.07;1.70;;;;;;;27.93;44.74;99491.88;5053287;28;20029;-84
2022/08/04 09:26:03;;;;;;;4.72;1.98;;;;;;;27.61;45.80;99493.25;5052189;28;20109;-80
2022/08/04 09:28:42;;;;;;;11.20;2.50;;;;;;;27.60;45.57;99489.63;5046071;28;20128;-81
2022/08/04 09:31:22;;;;;;;2.92;1.42;;;;;;;28.02;43.09;99492.34;5028583;28;20088;-80
2022/08/04 09:33:58;;;;;;;22.42;3.00;;;;;;;27.82;44.31;99491.81;5035559;28;20540;-80
2022/08/04 09:36:31;;;;;;;3.05;1.40;;;;;;;28.20;42.53;99491.63;5049014;28;20403;-83
2022/08/04 09:39:08;;;;;;;5.47;1.73;;;;;;;28.19;42.06;99487.25;5050381;28;20071;-83
2022/08/04 09:41:50;;;;;;;4.30;1.73;;;;;;;28.38;41.27;99485.28;5052414;28;20523;-88
2022/08/04 09:44:27;;;;;;;2.88;1.48;;;;;;;28.09;42.19;99486.78;5053757;28;20025;-87
2022/08/04 09:47:07;;;;;;;4.78;1.75;;;;;;;28.76;40.94;99490.66;5044793;28;20041;-82
2022/08/04 09:49:49;;;;;;;8.95;1.80;;;;;;;29.10;39.91;99489.53;5038012;28;20040;-82
2022/08/04 09:52:56;;;;;;;19.10;3.63;;;;;;;28.71;41.51;99494.66;5052883;28;20040;-91
2022/08/04 09:55:22;;;;;;;29.42;2.70;;;;;;;29.30;39.35;99500.38;5055976;28;20032;-91
2022/08/04 09:58:05;;;;;;;5.20;1.67;;;;;;;28.95;39.38;99495.09;5054481;28;20028;-89
2022/08/04 10:00:42;;;;;;;4.03;2.03;;;;;;;29.47;37.67;99496.75;5053406;28;20083;-91
2022/08/04 10:03:11;;;;;;;2.80;1.17;;;;;;;29.08;39.51;99489.13;5047530;28;20062;-81
2022/08/04 10:05:58;;;;;;;3.55;1.45;;;;;;;29.23;39.47;99496.34;5047077;28;20033;-80
2022/08/04 10:08:59;;;;;;;7.25;1.45;;;;;;;29.52;38.83;99503.16;5046603;28;20040;-81
2022/08/04 10:11:53;;;;;;;4.22;1.73;;;;;;;29.87;37.42;99498.75;5023186;28;20045;-83
2022/08/04 10:14:43;;;;;;;5.75;1.92;;;;;;;29.99;37.29;99499.50;5047988;28;20059;-83
2022/08/04 10:17:44;;;;;;;4.10;1.45;;;;;;;29.94;37.99;99509.16;5048084;28;20054;-86
2022/08/04 10:20:41;;;;;;;5.47;1.27;;;;;;;30.13;37.68;99507.91;5044997;28;20037;-86
2022/08/04 10:23:34;;;;;;;7.07;1.70;;;;;;;30.31;36.45;99509.09;5043406;28;20495;-83
2022/08/04 10:26:13;;;;;;;2.15;1.15;;;;;;;30.30;35.45;99508.28;5048100;28;20041;-82
2022/08/04 10:29:00;;;;;;;8.52;1.17;;;;;;;30.38;36.02;99514.69;5047712;28;20033;-82
2022/08/04 10:31:38;;;;;;;3.83;1.90;;;;;;;30.06;36.48;99510.75;5027181;28;20025;-82
2022/08/04 10:34:16;;;;;;;11.98;2.00;;;;;;;29.78;38.15;99498.38;5028929;28;20027;-82
2022/08/04 10:36:54;;;;;;;4.25;1.10;;;;;;;29.49;39.70;99499.97;5031312;28;20029;-91
2022/08/04 10:39:27;;;;;;;6.55;1.85;;;;;;;29.70;38.81;99512.41;5052823;28;20041;-93
2022/08/04 10:42:23;;;;;;;4.15;1.63;;;;;;;30.10;38.28;99505.91;5049740;28;20032;-82
2022/08/04 10:45:06;;;;;;;5.97;1.83;;;;;;;30.17;37.02;99503.06;5048516;28;20040;-80
2022/08/04 10:47:37;;;;;;;4.50;1.83;;;;;;;30.11;37.18;99510.31;5047597;28;20488;-93
2022/08/04 10:50:04;;;;;;;5.70;1.30;;;;;;;30.29;37.82;99515.91;5045431;28;20032;-95
2022/08/04 10:52:40;;;;;;;8.63;2.35;;;;;;;30.40;37.26;99520.69;5049323;28;20092;-81
2022/08/04 10:55:20;;;;;;;5.90;1.75;;;;;;;30.34;37.41;99520.31;5047824;28;20033;-81
2022/08/04 10:58:00;;;;;;;3.28;1.73;;;;;;;30.02;38.33;99518.38;5047088;28;20117;-84
2022/08/04 11:00:27;;;;;;;4.90;1.90;;;;;;;30.12;38.66;99514.75;5039374;28;20049;-82
2022/08/04 11:03:07;;;;;;;5.55;1.92;;;;;;;30.25;38.64;99517.09;5039846;28;20484;-93
2022/08/04 11:05:52;;;;;;;5.05;1.65;;;;;;;30.55;38.38;99517.81;5050353;28;20543;-94
2022/08/04 11:08:24;;;;;;;6.78;1.90;;;;;;;30.96;36.98;99519.22;5047983;28;20496;-86
2022/08/04 11:10:54;;;;;;;7.18;1.90;;;;;;;30.79;37.75;99509.66;5042491;28;20053;-86
2022/08/04 11:13:24;;;;;;;7.65;2.00;;;;;;;31.37;37.03;99514.09;5040791;28;20071;-84
2022/08/04 11:15:54;;;;;;;4.75;1.80;;;;;;;31.18;36.72;99521.91;5034584;28;20099;-86
2022/08/04 11:18:39;;;;;;;5.20;1.98;;;;;;;30.69;37.56;99528.19;5045109;28;20333;-83
2022/08/04 11:21:23;;;;;;;5.70;2.65;;;;;;;30.49;37.80;99528.69;5038899;28;20505;-82
2022/08/04 11:24:10;;;;;;;4.30;2.03;;;;;;;30.77;38.08;99532.56;5046010;28;20033;-82
2022/08/04 11:26:54;;;;;;;6.68;2.70;;;;;;;31.23;37.15;99532.72;5027707;28;20048;-82
2022/08/04 11:29:44;;;;;;;4.07;2.42;;;;;;;31.33;36.89;99547.91;5034116;28;20488;-82
2022/08/04 11:32:19;;;;;;;6.30;2.45;;;;;;;31.01;38.73;99538.50;5026288;28;20285;-83
2022/08/04 11:34:48;;;;;;;4.45;2.00;;;;;;;31.17;38.11;99549.22;5026176;28;20476;-83
2022/08/04 11:37:25;;;;;;;3.65;2.15;;;;;;;31.34;38.01;99550.31;5025540;28;20107;-83
2022/08/04 11:40:01;;;;;;;7.43;2.00;;;;;;;31.58;37.36;99549.75;5035571;28;20342;-82
2022/08/04 11:42:36;;;;;;;10.82;2.28;;;;;;;31.23;38.44;99555.22;5037449;28;20048;-92
2022/08/04 11:45:10;;;;;;;8.45;2.40;;;;;;;31.20;37.94;99544.81;5047238;28;20028;-93
2022/08/04 11:47:41;;;;;;;11.30;3.10;;;;;;;31.09;37.54;99550.50;5046822;28;20044;-86
2022/08/04 11:50:18;;;;;;;3.60;1.80;;;;;;;30.99;37.79;99552.97;5045495;28;20557;-86
2022/08/04 11:52:45;;;;;;;5.00;1.85;;;;;;;30.87;38.42;99562.69;5045742;28;20049;-82
2022/08/04 11:55:14;;;;;;;9.27;1.77;;;;;;;30.67;38.26;99555.94;5044926;28;20029;-82
2022/08/04 11:57:40;;;;;;;7.70;2.20;;;;;;;30.70;37.79;99560.72;5046661;28;20183;-94
2022/08/04 12:00:11;;;;;;;7.88;1.92;;;;;;;30.60;38.90;99563.19;5045505;28;20560;-93
2022/08/04 12:02:55;;;;;;;6.45;2.00;;;;;;;30.61;39.16;99573.22;5043598;28;20171;-84
2022/08/04 12:05:29;;;;;;;5.88;1.60;;;;;;;30.70;39.28;99571.97;5040964;28;20288;-84
2022/08/04 12:08:07;;;;;;;6.53;2.35;;;;;;;30.86;38.67;99566.69;5045777;28;20037;-84
2022/08/04 12:10:59;;;;;;;5.70;1.70;;;;;;;31.02;37.86;99568.22;5046694;28;20047;-85
2022/08/04 12:13:35;;;;;;;5.70;1.83;;;;;;;30.78;38.23;99570.72;5047532;28;20102;-82
2022/08/04 12:16:23;;;;;;;6.95;2.20;;;;;;;30.67;38.81;99570.00;5047777;28;20442;-83
2022/08/04 12:18:56;;;;;;;4.22;1.73;;;;;;;30.33;39.69;99569.28;5046174;28;20550;-83
2022/08/04 12:21:33;;;;;;;;;;;;;;;30.30;40.36;99575.75;5041149;28;20187;-82